Time;durP1;ratioP1;P1;durP2;ratioP2;P2;SDS_P1;SDS_P2;PMS_P1;PMS_P2;Temp;Humidity;BMP_temperature;BMP_pressure;BME280_temperature;BME280_humidity;BME280_pressure;Samples;Min_cycle;Max_cycle;Signal;HPM_P1;HPM_P2
2023/09/08 00:02:06;;;;;;;4.68;3.25;;;19.30;99.90;;;;;;5024923;28;20258;-69
2023/09/08 00:04:32;;;;;;;6.32;3.80;;;19.30;99.90;;;;;;4987150;28;20056;-69
2023/09/08 00:06:58;;;;;;;6.60;4.00;;;19.20;99.90;;;;;;5017578;28;20034;-69
2023/09/08 00:09:24;;;;;;;7.40;3.63;;;19.30;99.90;;;;;;5015193;28;20049;-69
2023/09/08 00:11:50;;;;;;;6.25;3.80;;;19.20;99.90;;;;;;5025172;28;20517;-69
2023/09/08 00:14:15;;;;;;;6.75;4.05;;;19.20;99.90;;;;;;5020836;28;20049;-69
2023/09/08 00:16:42;;;;;;;5.50;3.42;;;19.00;99.90;;;;;;5023210;28;20124;-69
2023/09/08 00:19:09;;;;;;;6.93;3.88;;;19.10;99.90;;;;;;5013251;28;20048;-69
2023/09/08 00:21:36;;;;;;;6.97;4.30;;;19.00;99.90;;;;;;5010726;28;20082;-69
2023/09/08 00:24:02;;;;;;;8.48;3.65;;;18.90;99.90;;;;;;5010902;28;20394;-69
2023/09/08 00:26:27;;;;;;;6.20;3.83;;;18.90;99.90;;;;;;5018089;28;20036;-69
2023/09/08 00:28:53;;;;;;;5.35;3.50;;;18.90;99.90;;;;;;5015274;28;20450;-69
2023/09/08 00:31:18;;;;;;;6.07;3.75;;;18.80;99.90;;;;;;5014102;28;20055;-69
2023/09/08 00:33:44;;;;;;;5.53;3.50;;;18.80;99.90;;;;;;5019110;28;20037;-69
2023/09/08 00:36:10;;;;;;;6.50;3.78;;;18.80;99.90;;;;;;5113108;27;20037;-69
2023/09/08 00:38:35;;;;;;;7.40;4.22;;;18.70;99.90;;;;;;5010822;28;20063;-69
2023/09/08 00:41:01;;;;;;;6.55;3.42;;;18.70;99.90;;;;;;5021438;28;20037;-69
2023/09/08 00:43:27;;;;;;;7.15;3.58;;;18.60;99.90;;;;;;5017448;28;20052;-69
2023/09/08 00:45:54;;;;;;;5.45;3.15;;;18.60;99.90;;;;;;5017158;28;20073;-69
2023/09/08 00:48:20;;;;;;;6.70;3.90;;;18.50;99.90;;;;;;5024377;28;20059;-69
2023/09/08 00:50:46;;;;;;;6.43;3.97;;;18.50;99.90;;;;;;5007576;28;20037;-69
2023/09/08 00:53:12;;;;;;;5.78;3.63;;;18.50;99.90;;;;;;5029118;28;20042;-70
2023/09/08 00:55:39;;;;;;;7.95;3.53;;;18.50;99.90;;;;;;5107108;27;20606;-70
2023/09/08 00:58:05;;;;;;;6.25;3.75;;;18.40;99.90;;;;;;5015220;28;20068;-70
2023/09/08 01:00:32;;;;;;;9.88;3.75;;;18.40;99.90;;;;;;5014416;28;20191;-70
2023/09/08 01:02:58;;;;;;;6.13;3.85;;;18.40;99.90;;;;;;5007775;28;20080;-70
2023/09/08 01:05:24;;;;;;;7.28;3.92;;;18.30;99.90;;;;;;5009612;28;20133;-70
2023/09/08 01:07:51;;;;;;;6.82;3.88;;;18.40;99.90;;;;;;5111070;27;20049;-70
2023/09/08 01:10:17;;;;;;;5.30;3.55;;;18.30;99.90;;;;;;5008237;28;20060;-70
2023/09/08 01:12:43;;;;;;;6.43;3.78;;;18.30;99.90;;;;;;5018846;27;20046;-70
2023/09/08 01:15:09;;;;;;;6.13;3.33;;;18.30;99.90;;;;;;5018232;28;20414;-70
2023/09/08 01:17:34;;;;;;;6.15;3.72;;;18.20;99.90;;;;;;5017112;28;20037;-70
2023/09/08 01:20:08;;;;;;;6.97;3.95;;;18.20;99.90;;;;;;5013403;28;20037;-70
2023/09/08 01:23:02;;;;;;;6.50;3.95;;;18.20;99.90;;;;;;5018520;28;20196;-70
2023/09/08 01:25:29;;;;;;;6.50;3.75;;;18.10;99.90;;;;;;5014929;28;20082;-70
2023/09/08 01:27:58;;;;;;;6.75;3.95;;;18.10;99.90;;;;;;5018163;28;20037;-70
2023/09/08 01:30:28;;;;;;;6.80;3.72;;;18.10;99.90;;;;;;5015142;28;20482;-70
2023/09/08 01:32:54;;;;;;;6.90;3.85;;;18.10;99.90;;;;;;5019930;28;20034;-70
2023/09/08 01:35:20;;;;;;;6.57;4.15;;;18.10;99.90;;;;;;5016425;27;20037;-70
2023/09/08 01:37:48;;;;;;;7.43;4.55;;;18.10;99.90;;;;;;5005332;28;20041;-70
2023/09/08 01:40:14;;;;;;;7.22;3.72;;;18.10;99.90;;;;;;5020094;28;20033;-70
2023/09/08 01:42:40;;;;;;;8.77;4.47;;;18.10;99.90;;;;;;5018164;28;20043;-70
2023/09/08 01:45:07;;;;;;;8.10;4.05;;;18.10;99.90;;;;;;5013403;27;20046;-70
2023/09/08 01:47:33;;;;;;;6.78;4.03;;;18.10;99.90;;;;;;5014499;28;20078;-70
2023/09/08 01:49:59;;;;;;;5.68;3.72;;;18.10;99.90;;;;;;5011762;28;20026;-70
2023/09/08 01:52:25;;;;;;;8.93;4.50;;;18.00;99.90;;;;;;5018338;28;20803;-70
2023/09/08 01:54:51;;;;;;;8.52;4.63;;;18.10;99.90;;;;;;5019923;28;20076;-70
2023/09/08 01:57:17;;;;;;;7.68;4.25;;;18.00;99.90;;;;;;5015421;28;20505;-70
2023/09/08 01:59:44;;;;;;;7.80;4.30;;;18.10;99.90;;;;;;5012050;28;20052;-70
2023/09/08 02:02:10;;;;;;;6.95;3.97;;;18.00;99.90;;;;;;5017919;27;20083;-70
2023/09/08 02:04:36;;;;;;;7.40;4.05;;;18.00;99.90;;;;;;5018243;28;20098;-70
2023/09/08 02:07:03;;;;;;;8.25;4.03;;;18.00;99.90;;;;;;5021173;27;20045;-69
2023/09/08 02:09:36;;;;;;;8.18;4.25;;;18.00;99.90;;;;;;5019548;28;20044;-70
2023/09/08 02:12:03;;;;;;;7.63;4.55;;;18.00;99.90;;;;;;5000917;28;20038;-70
2023/09/08 02:14:29;;;;;;;7.68;4.47;;;18.00;99.90;;;;;;5107217;27;20038;-69
2023/09/08 02:16:55;;;;;;;7.45;4.65;;;18.00;99.90;;;;;;5018620;28;20036;-69
2023/09/08 02:19:20;;;;;;;8.70;4.05;;;17.90;99.90;;;;;;5017060;28;21788;-70
2023/09/08 02:21:46;;;;;;;6.53;3.67;;;17.90;99.90;;;;;;5016586;27;20587;-70
2023/09/08 02:24:12;;;;;;;7.40;4.03;;;17.90;99.90;;;;;;5010166;27;20030;-70
2023/09/08 02:26:41;;;;;;;7.13;4.45;;;17.80;99.90;;;;;;5018093;28;20037;-70
2023/09/08 02:29:07;;;;;;;7.30;4.00;;;17.80;99.90;;;;;;5020217;28;20083;-70
2023/09/08 02:31:33;;;;;;;7.13;4.30;;;17.70;99.90;;;;;;5017351;27;20029;-70
2023/09/08 02:33:58;;;;;;;7.65;3.95;;;17.70;99.90;;;;;;5012703;28;20033;-70
2023/09/08 02:36:27;;;;;;;9.05;4.47;;;17.70;99.90;;;;;;5019980;27;20615;-70
2023/09/08 02:38:56;;;;;;;7.90;4.47;;;17.70;99.90;;;;;;5017453;27;20096;-70
2023/09/08 02:41:22;;;;;;;6.13;3.92;;;17.70;99.90;;;;;;5001963;28;20418;-70
2023/09/08 02:43:48;;;;;;;9.52;4.53;;;17.60;99.90;;;;;;5017294;28;20029;-70
2023/09/08 02:46:14;;;;;;;8.20;4.43;;;17.60;99.90;;;;;;5016362;28;20906;-70
2023/09/08 02:48:40;;;;;;;6.65;4.20;;;17.60;99.90;;;;;;5017434;27;20029;-70
2023/09/08 02:51:05;;;;;;;9.30;4.85;;;17.60;99.90;;;;;;5015435;28;20410;-70
2023/09/08 02:53:31;;;;;;;8.65;4.68;;;17.60;99.90;;;;;;5013966;28;20046;-70
2023/09/08 02:55:57;;;;;;;9.43;5.10;;;17.60;99.90;;;;;;5016858;28;20037;-70
2023/09/08 02:58:23;;;;;;;9.13;4.43;;;17.60;99.90;;;;;;5015557;28;20038;-70
2023/09/08 03:00:51;;;;;;;7.57;4.15;;;17.60;99.90;;;;;;5016370;28;20037;-70
2023/09/08 03:03:17;;;;;;;7.70;4.20;;;17.60;99.90;;;;;;5017624;28;21164;-70
2023/09/08 03:05:42;;;;;;;10.45;4.93;;;17.50;99.90;;;;;;5015506;27;20071;-70
2023/09/08 03:08:08;;;;;;;10.73;4.43;;;17.50;99.90;;;;;;5014327;28;20148;-70
2023/09/08 03:10:36;;;;;;;8.50;4.63;;;17.50;99.90;;;;;;5107992;27;20066;-70
2023/09/08 03:13:03;;;;;;;9.80;4.78;;;17.50;99.90;;;;;;5004066;28;20042;-70
2023/09/08 03:15:28;;;;;;;9.38;4.97;;;17.50;99.90;;;;;;5016554;27;20059;-70
2023/09/08 03:18:00;;;;;;;7.43;4.45;;;17.50;99.90;;;;;;5020702;28;20467;-70
2023/09/08 03:20:27;;;;;;;7.75;4.38;;;17.50;99.90;;;;;;5013533;27;20041;-69
2023/09/08 03:22:53;;;;;;;8.02;4.70;;;17.50;99.90;;;;;;5025843;27;20053;-71
2023/09/08 03:25:18;;;;;;;8.30;4.45;;;17.50;99.90;;;;;;5013424;28;20041;-70
2023/09/08 03:27:44;;;;;;;10.32;4.72;;;17.50;99.90;;;;;;5009103;28;20037;-70
2023/09/08 03:30:10;;;;;;;10.77;4.65;;;17.50;99.90;;;;;;5017908;27;20041;-69
2023/09/08 03:32:36;;;;;;;9.88;4.43;;;17.50;99.90;;;;;;5015887;28;20042;-69
2023/09/08 03:35:04;;;;;;;6.75;4.40;;;17.50;99.90;;;;;;5010188;28;20084;-69
2023/09/08 03:37:29;;;;;;;7.45;4.70;;;17.40;99.90;;;;;;5015765;28;20042;-70
2023/09/08 03:39:55;;;;;;;7.57;4.72;;;17.40;99.90;;;;;;5017355;28;20037;-70
2023/09/08 03:42:20;;;;;;;9.68;5.18;;;17.40;99.90;;;;;;5011361;28;20041;-70
2023/09/08 03:44:46;;;;;;;8.82;5.07;;;17.40;99.90;;;;;;5002109;28;20043;-70
2023/09/08 03:47:11;;;;;;;6.72;4.35;;;17.40;99.90;;;;;;5014381;28;20055;-70
2023/09/08 03:49:37;;;;;;;9.10;5.00;;;17.40;99.90;;;;;;5019084;28;20514;-69
2023/09/08 03:52:03;;;;;;;7.22;4.40;;;17.40;99.90;;;;;;5011229;28;20127;-70
2023/09/08 03:54:28;;;;;;;7.43;4.75;;;17.30;99.90;;;;;;5010671;28;20174;-70
2023/09/08 03:56:54;;;;;;;7.30;4.50;;;17.30;99.90;;;;;;5113213;27;20053;-70
2023/09/08 03:59:19;;;;;;;10.18;4.43;;;17.20;99.90;;;;;;5018118;28;20048;-70
2023/09/08 04:01:45;;;;;;;7.97;4.90;;;17.30;99.90;;;;;;5019242;28;20123;-70
2023/09/08 04:04:10;;;;;;;7.57;4.35;;;17.20;99.90;;;;;;5015883;28;20114;-70
2023/09/08 04:06:36;;;;;;;8.63;4.45;;;17.20;99.90;;;;;;4994339;28;20220;-70
2023/09/08 04:09:02;;;;;;;10.32;4.95;;;17.20;99.90;;;;;;5016686;28;20034;-70
2023/09/08 04:11:27;;;;;;;11.43;5.45;;;17.20;99.90;;;;;;5017867;28;20040;-70
2023/09/08 04:13:53;;;;;;;7.97;4.72;;;17.20;99.90;;;;;;4999813;28;20517;-70
2023/09/08 04:16:18;;;;;;;10.35;5.57;;;17.10;99.90;;;;;;5010717;28;20477;-70
2023/09/08 04:18:44;;;;;;;8.52;4.63;;;17.10;99.90;;;;;;5113307;27;20044;-70
2023/09/08 04:21:10;;;;;;;8.30;5.22;;;17.10;99.90;;;;;;5011702;28;20034;-70
2023/09/08 04:23:35;;;;;;;10.10;5.00;;;17.10;99.90;;;;;;5013521;28;20037;-70
2023/09/08 04:26:01;;;;;;;9.05;5.20;;;17.10;99.90;;;;;;5017792;28;20038;-70
2023/09/08 04:28:27;;;;;;;9.48;5.28;;;17.10;99.90;;;;;;5015514;28;20034;-70
2023/09/08 04:30:52;;;;;;;7.45;4.55;;;17.10;99.90;;;;;;5017895;28;20516;-70
2023/09/08 04:33:18;;;;;;;9.18;5.13;;;17.10;99.90;;;;;;5011455;28;20042;-70
2023/09/08 04:35:43;;;;;;;7.30;3.97;;;17.00;99.90;;;;;;5022454;28;20252;-70
2023/09/08 04:38:09;;;;;;;10.13;5.00;;;17.00;99.90;;;;;;5017238;28;20063;-70
2023/09/08 04:40:35;;;;;;;10.80;4.70;;;17.00;99.90;;;;;;5011204;28;20065;-70
2023/09/08 04:43:00;;;;;;;9.10;4.70;;;17.00;99.90;;;;;;5011547;28;20041;-70
2023/09/08 04:45:26;;;;;;;7.95;4.80;;;17.00;99.90;;;;;;5016681;28;20081;-70
2023/09/08 04:47:51;;;;;;;11.52;5.35;;;17.00;99.90;;;;;;5019540;28;20518;-70
2023/09/08 04:50:17;;;;;;;8.95;4.97;;;17.00;99.90;;;;;;5017192;28;20212;-70
2023/09/08 04:52:42;;;;;;;7.90;4.80;;;17.00;99.90;;;;;;5016698;28;20096;-70
2023/09/08 04:55:09;;;;;;;9.05;4.93;;;17.00;99.90;;;;;;5010108;28;20042;-70
2023/09/08 04:57:35;;;;;;;8.82;4.63;;;17.00;99.90;;;;;;5017502;28;20045;-70
2023/09/08 05:00:01;;;;;;;8.20;4.88;;;17.00;99.90;;;;;;5002560;28;20037;-70
2023/09/08 05:02:26;;;;;;;9.27;5.25;;;16.90;99.90;;;;;;5018220;28;20179;-70
2023/09/08 05:04:52;;;;;;;13.15;5.15;;;16.90;99.90;;;;;;4996433;28;20057;-70
2023/09/08 05:07:18;;;;;;;8.10;5.15;;;17.00;99.90;;;;;;5002459;28;20101;-70
2023/09/08 05:09:44;;;;;;;8.32;4.25;;;17.00;99.90;;;;;;5018617;28;20039;-70
2023/09/08 05:12:09;;;;;;;10.18;4.95;;;17.00;99.90;;;;;;5020360;28;20035;-70
2023/09/08 05:14:35;;;;;;;8.85;4.40;;;16.90;99.90;;;;;;5011753;28;20077;-70
2023/09/08 05:17:01;;;;;;;8.25;4.68;;;16.90;99.90;;;;;;5020154;28;20378;-70
2023/09/08 05:19:26;;;;;;;8.43;5.20;;;16.90;99.90;;;;;;5018458;28;20380;-70
2023/09/08 05:21:54;;;;;;;11.40;4.88;;;16.90;99.90;;;;;;5020219;27;20378;-70
2023/09/08 05:24:20;;;;;;;8.85;4.93;;;16.80;99.90;;;;;;5011980;28;20487;-70
2023/09/08 05:26:46;;;;;;;9.48;4.55;;;16.80;99.90;;;;;;5018612;28;20368;-70
2023/09/08 05:29:12;;;;;;;9.13;4.93;;;16.90;99.90;;;;;;4999216;28;20052;-70
2023/09/08 05:31:37;;;;;;;8.98;4.78;;;16.90;99.90;;;;;;5019324;28;20041;-70
2023/09/08 05:34:03;;;;;;;8.40;5.00;;;16.90;99.90;;;;;;5015386;27;20688;-70
2023/09/08 05:36:29;;;;;;;7.07;4.35;;;16.90;99.90;;;;;;5027493;27;20045;-70
2023/09/08 05:38:55;;;;;;;10.52;4.90;;;16.90;99.90;;;;;;5017739;28;20054;-70
2023/09/08 05:41:21;;;;;;;8.45;4.82;;;16.90;99.90;;;;;;5033919;27;20041;-70
2023/09/08 05:43:47;;;;;;;9.05;4.70;;;16.90;99.90;;;;;;5012960;27;20049;-70
2023/09/08 05:46:12;;;;;;;7.63;4.50;;;16.90;99.90;;;;;;5017837;27;20026;-70
2023/09/08 05:48:38;;;;;;;9.30;4.65;;;16.90;99.90;;;;;;5028831;27;20079;-70
2023/09/08 05:51:05;;;;;;;10.57;5.18;;;16.90;99.90;;;;;;5019350;27;20026;-70
2023/09/08 05:53:31;;;;;;;8.50;4.47;;;17.00;99.90;;;;;;4993199;28;20484;-70
2023/09/08 05:55:57;;;;;;;11.00;4.90;;;17.00;99.90;;;;;;4999518;28;20052;-70
2023/09/08 05:58:24;;;;;;;10.38;5.22;;;17.00;99.90;;;;;;5016313;27;20042;-70
2023/09/08 06:00:49;;;;;;;7.93;4.50;;;17.00;99.90;;;;;;5019575;28;20033;-70
2023/09/08 06:03:15;;;;;;;10.60;4.70;;;17.00;99.90;;;;;;5011612;27;20049;-70
2023/09/08 06:05:40;;;;;;;8.95;5.03;;;17.10;99.90;;;;;;5011566;28;20117;-70
2023/09/08 06:08:06;;;;;;;11.32;4.65;;;17.10;99.90;;;;;;5018174;28;20435;-70
2023/09/08 06:10:32;;;;;;;7.18;4.25;;;17.10;99.90;;;;;;4995358;28;20089;-70
2023/09/08 06:12:57;;;;;;;8.98;4.95;;;17.10;99.90;;;;;;5015243;27;20098;-70
2023/09/08 06:15:23;;;;;;;10.95;4.90;;;17.10;99.90;;;;;;5010644;28;20514;-70
2023/09/08 06:17:48;;;;;;;9.32;5.20;;;17.20;99.90;;;;;;5020161;28;20116;-70
2023/09/08 06:20:16;;;;;;;9.52;4.60;;;17.20;99.90;;;;;;5022678;27;20038;-70
2023/09/08 06:22:41;;;;;;;11.10;5.25;;;17.20;99.90;;;;;;5017426;28;20089;-70
2023/09/08 06:25:07;;;;;;;10.98;5.20;;;17.30;99.90;;;;;;5010241;28;20073;-71
2023/09/08 06:27:33;;;;;;;7.88;4.47;;;17.30;99.90;;;;;;5015138;28;20174;-70
2023/09/08 06:29:58;;;;;;;8.18;4.40;;;17.30;99.90;;;;;;5010422;27;20029;-71
2023/09/08 06:32:24;;;;;;;10.52;4.93;;;17.30;99.90;;;;;;5012326;27;20094;-70
2023/09/08 06:34:49;;;;;;;11.07;4.95;;;17.40;99.90;;;;;;5023388;27;20528;-70
2023/09/08 06:37:15;;;;;;;11.07;5.53;;;17.40;99.90;;;;;;5014977;27;20041;-70
2023/09/08 06:39:40;;;;;;;8.35;4.38;;;17.40;99.90;;;;;;5015622;27;20053;-70
2023/09/08 06:42:06;;;;;;;8.73;4.80;;;17.50;99.90;;;;;;5015690;27;20511;-70
2023/09/08 06:44:32;;;;;;;8.00;4.80;;;17.50;99.90;;;;;;5015063;27;20048;-70
2023/09/08 06:46:57;;;;;;;7.72;4.68;;;17.50;99.90;;;;;;5018225;28;20044;-70
2023/09/08 06:49:23;;;;;;;9.90;5.13;;;17.50;99.90;;;;;;5017500;27;20037;-70
2023/09/08 06:51:48;;;;;;;9.02;5.03;;;17.60;99.90;;;;;;4996317;28;20057;-70
2023/09/08 06:54:14;;;;;;;10.13;4.40;;;17.60;99.90;;;;;;5016384;28;20715;-70
2023/09/08 06:56:40;;;;;;;8.63;4.88;;;17.60;99.90;;;;;;5016357;27;20056;-70
2023/09/08 06:59:05;;;;;;;7.30;4.60;;;17.60;99.90;;;;;;5022511;28;20151;-70
2023/09/08 07:01:31;;;;;;;7.95;4.90;;;17.70;99.90;;;;;;5018774;28;20053;-70
2023/09/08 07:03:56;;;;;;;8.82;4.57;;;17.70;99.90;;;;;;5009239;27;20548;-70
2023/09/08 07:06:22;;;;;;;8.50;4.88;;;17.80;99.90;;;;;;5010840;28;20041;-70
2023/09/08 07:08:51;;;;;;;11.48;5.53;;;17.80;99.90;;;;;;5009871;28;20478;-70
2023/09/08 07:11:17;;;;;;;9.77;4.43;;;17.80;99.90;;;;;;5016699;27;20034;-70
2023/09/08 07:13:42;;;;;;;8.00;4.53;;;17.90;99.90;;;;;;4997323;28;20048;-70
2023/09/08 07:16:08;;;;;;;9.88;5.00;;;17.90;99.90;;;;;;5012822;28;20045;-70
2023/09/08 07:18:35;;;;;;;8.82;4.88;;;18.00;99.90;;;;;;5015085;28;20036;-70
2023/09/08 07:21:02;;;;;;;7.78;4.50;;;18.00;99.90;;;;;;5012419;27;20049;-71
2023/09/08 07:23:27;;;;;;;9.50;5.28;;;18.10;99.90;;;;;;5111885;27;20049;-70
2023/09/08 07:25:53;;;;;;;8.95;4.30;;;18.10;99.90;;;;;;5016283;28;20044;-70
2023/09/08 07:28:19;;;;;;;7.55;4.35;;;18.20;99.90;;;;;;5017788;27;20041;-70
2023/09/08 07:30:44;;;;;;;13.13;4.20;;;18.20;99.90;;;;;;5016016;27;20102;-70
2023/09/08 07:33:10;;;;;;;7.15;3.65;;;18.30;99.90;;;;;;5012414;28;20402;-71
2023/09/08 07:35:40;;;;;;;6.43;3.60;;;18.30;99.90;;;;;;5015024;28;20055;-70
2023/09/08 07:38:06;;;;;;;7.47;4.05;;;18.40;99.90;;;;;;5016023;28;20383;-70
2023/09/08 07:40:35;;;;;;;6.28;3.50;;;18.50;99.90;;;;;;5010833;28;20063;-70
2023/09/08 07:43:01;;;;;;;8.02;4.03;;;18.50;99.90;;;;;;5023701;28;20045;-70
2023/09/08 07:45:26;;;;;;;7.55;3.90;;;18.70;99.90;;;;;;5020820;28;20420;-70
2023/09/08 07:47:52;;;;;;;7.72;3.83;;;18.70;99.90;;;;;;5026143;28;20090;-70
2023/09/08 07:50:22;;;;;;;6.85;3.80;;;18.80;99.90;;;;;;5010804;28;20160;-70
2023/09/08 07:52:49;;;;;;;6.43;3.08;;;18.80;99.90;;;;;;5024667;28;20175;-70
2023/09/08 07:55:15;;;;;;;6.00;3.55;;;18.90;99.90;;;;;;5024425;28;20041;-70
2023/09/08 07:57:43;;;;;;;6.97;3.38;;;18.90;99.90;;;;;;5027060;28;20117;-70
2023/09/08 08:00:10;;;;;;;5.32;3.22;;;19.00;99.90;;;;;;5021973;28;20053;-70
2023/09/08 08:02:37;;;;;;;9.98;3.88;;;19.10;99.90;;;;;;5025612;28;20087;-70
2023/09/08 08:05:03;;;;;;;6.32;3.70;;;19.20;99.90;;;;;;5019618;28;20129;-70
2023/09/08 08:07:29;;;;;;;5.57;3.38;;;19.20;99.90;;;;;;5024853;28;20479;-70
2023/09/08 08:09:55;;;;;;;5.80;3.80;;;19.20;99.90;;;;;;4993456;28;20043;-70
2023/09/08 08:12:20;;;;;;;7.65;3.70;;;19.30;99.90;;;;;;4994712;28;20030;-70
2023/09/08 08:14:46;;;;;;;5.93;3.42;;;19.40;99.90;;;;;;5020550;28;20407;-72
2023/09/08 08:17:12;;;;;;;8.65;3.58;;;19.40;99.90;;;;;;5013369;28;20138;-70
2023/09/08 08:19:38;;;;;;;6.88;3.08;;;19.50;99.90;;;;;;5008915;28;20366;-70
2023/09/08 08:22:03;;;;;;;5.30;3.28;;;19.60;99.90;;;;;;5012981;28;20588;-68
2023/09/08 08:24:30;;;;;;;5.13;3.05;;;19.60;99.90;;;;;;5014881;28;20102;-69
2023/09/08 08:26:56;;;;;;;6.05;3.22;;;19.70;99.90;;;;;;5019308;28;20081;-70
2023/09/08 08:29:21;;;;;;;6.13;3.40;;;19.70;99.90;;;;;;5015836;28;20581;-70
2023/09/08 08:31:47;;;;;;;6.05;3.30;;;19.80;99.90;;;;;;5025239;28;20124;-70
2023/09/08 08:34:12;;;;;;;5.10;2.90;;;19.80;99.90;;;;;;5014220;27;20128;-70
2023/09/08 08:36:38;;;;;;;6.25;3.05;;;19.90;99.90;;;;;;5015175;27;20057;-70
2023/09/08 08:39:05;;;;;;;4.88;3.03;;;19.90;99.90;;;;;;5015628;28;20644;-70
2023/09/08 08:41:31;;;;;;;7.75;3.30;;;19.90;99.90;;;;;;5016121;28;20120;-69
2023/09/08 08:43:57;;;;;;;4.60;3.17;;;20.00;99.90;;;;;;5012971;28;20667;-70
2023/09/08 08:46:23;;;;;;;6.70;3.47;;;20.10;99.90;;;;;;5014464;28;20026;-70
2023/09/08 08:48:51;;;;;;;6.88;3.30;;;20.10;99.90;;;;;;5013665;27;20441;-70
2023/09/08 08:51:19;;;;;;;4.95;2.60;;;20.20;99.90;;;;;;5011300;28;20061;-70
2023/09/08 08:53:44;;;;;;;5.97;3.20;;;20.20;99.90;;;;;;5112419;27;20121;-70
2023/09/08 08:56:10;;;;;;;5.63;2.90;;;20.30;99.90;;;;;;5013033;28;20132;-70
2023/09/08 08:58:39;;;;;;;4.53;3.00;;;20.30;99.90;;;;;;5018750;27;20479;-70
2023/09/08 09:01:06;;;;;;;6.53;3.00;;;20.30;99.90;;;;;;5012957;27;20034;-70
2023/09/08 09:03:34;;;;;;;8.02;3.20;;;20.40;99.90;;;;;;5019051;27;20049;-70
2023/09/08 09:06:00;;;;;;;4.70;3.33;;;20.40;99.90;;;;;;5015071;28;20041;-70
2023/09/08 09:08:27;;;;;;;5.13;2.95;;;20.50;99.90;;;;;;5017860;28;20048;-70
2023/09/08 09:10:53;;;;;;;6.05;3.22;;;20.50;99.90;;;;;;5015957;28;20090;-70
2023/09/08 09:13:19;;;;;;;5.45;2.80;;;20.60;99.90;;;;;;5016211;28;20056;-70
2023/09/08 09:15:46;;;;;;;4.72;2.72;;;20.60;99.90;;;;;;5015974;28;20042;-70
2023/09/08 09:18:12;;;;;;;4.75;2.90;;;20.70;99.90;;;;;;5015740;28;20590;-70
2023/09/08 09:20:38;;;;;;;4.93;3.22;;;20.70;99.90;;;;;;5004557;28;20041;-71
2023/09/08 09:23:03;;;;;;;5.78;3.30;;;20.80;99.90;;;;;;5010382;28;20118;-70
2023/09/08 09:25:31;;;;;;;4.95;2.80;;;20.80;99.90;;;;;;5004938;27;20044;-70
2023/09/08 09:27:58;;;;;;;7.30;3.10;;;20.90;99.90;;;;;;5018216;27;20048;-70
2023/09/08 09:30:25;;;;;;;4.70;2.83;;;20.90;99.90;;;;;;5008192;28;20253;-70
2023/09/08 09:33:03;;;;;;;5.20;3.28;;;21.00;99.90;;;;;;5014950;27;20037;-70
2023/09/08 09:35:53;;;;;;;6.03;3.10;;;21.00;99.90;;;;;;5014711;27;20127;-70
2023/09/08 09:38:20;;;;;;;5.13;3.42;;;21.00;99.90;;;;;;5107142;27;20072;-70
2023/09/08 09:40:46;;;;;;;6.13;3.00;;;21.10;99.90;;;;;;5008866;27;21210;-72
2023/09/08 09:43:14;;;;;;;6.13;3.35;;;21.10;99.90;;;;;;5007659;27;20107;-72
2023/09/08 09:45:40;;;;;;;4.47;2.72;;;21.10;99.90;;;;;;5017681;27;20098;-71
2023/09/08 09:48:08;;;;;;;5.55;3.00;;;21.30;99.90;;;;;;5011058;28;20043;-72
2023/09/08 09:50:36;;;;;;;5.93;2.95;;;21.30;99.90;;;;;;5008015;28;20033;-72
2023/09/08 09:53:10;;;;;;;4.93;3.08;;;21.30;99.90;;;;;;4999402;28;20051;-72
2023/09/08 09:55:38;;;;;;;6.20;2.83;;;21.40;99.90;;;;;;5019617;27;20038;-72
2023/09/08 09:58:04;;;;;;;5.78;3.50;;;21.40;99.90;;;;;;5019044;27;20041;-72
2023/09/08 10:00:34;;;;;;;6.68;2.85;;;21.40;99.90;;;;;;5006900;28;20421;-72
2023/09/08 10:03:00;;;;;;;4.25;2.60;;;21.50;99.90;;;;;;5012212;28;20048;-73
2023/09/08 10:05:27;;;;;;;6.18;3.30;;;21.50;99.90;;;;;;5007412;27;20597;-70
2023/09/08 10:07:53;;;;;;;5.75;2.67;;;21.60;99.90;;;;;;5012358;27;20589;-71
2023/09/08 10:10:20;;;;;;;8.25;2.95;;;21.60;99.90;;;;;;5007191;27;20065;-71
2023/09/08 10:12:53;;;;;;;5.68;2.90;;;21.60;99.90;;;;;;4989865;28;20031;-71
2023/09/08 10:15:23;;;;;;;5.38;3.00;;;21.60;99.90;;;;;;5005589;27;21710;-71
2023/09/08 10:17:55;;;;;;;5.47;3.35;;;21.70;99.90;;;;;;5001810;28;20415;-71
2023/09/08 10:20:26;;;;;;;4.63;2.92;;;21.70;99.90;;;;;;5003619;27;20037;-71
2023/09/08 10:23:04;;;;;;;4.63;2.88;;;21.80;99.90;;;;;;5015272;27;20069;-71
2023/09/08 10:25:35;;;;;;;4.85;3.08;;;21.80;99.90;;;;;;5004062;27;20034;-71
2023/09/08 10:28:01;;;;;;;5.25;2.97;;;21.90;99.90;;;;;;5007353;28;20037;-71
2023/09/08 10:30:27;;;;;;;5.28;2.90;;;21.90;99.90;;;;;;5003227;27;20052;-71
2023/09/08 10:32:54;;;;;;;5.15;3.17;;;21.90;99.90;;;;;;5008363;28;20045;-72
2023/09/08 10:35:19;;;;;;;5.72;2.97;;;22.00;99.90;;;;;;5005427;27;21223;-71
2023/09/08 10:37:45;;;;;;;4.78;3.17;;;22.00;99.90;;;;;;5000808;27;20036;-71
2023/09/08 10:40:27;;;;;;;4.82;3.10;;;22.00;99.90;;;;;;5002327;28;20205;-71
2023/09/08 10:43:11;;;;;;;5.50;2.80;;;22.00;99.90;;;;;;5002913;28;20499;-70
2023/09/08 10:45:37;;;;;;;5.15;2.97;;;22.10;99.90;;;;;;5097800;27;20874;-73
2023/09/08 10:48:03;;;;;;;5.13;3.53;;;22.20;99.90;;;;;;5011249;27;20603;-71
2023/09/08 10:50:34;;;;;;;4.85;3.10;;;22.10;99.90;;;;;;5006196;28;20537;-70
2023/09/08 10:53:18;;;;;;;7.45;3.13;;;22.20;99.90;;;;;;5009128;27;20034;-71
2023/09/08 10:55:51;;;;;;;4.78;2.83;;;22.30;99.90;;;;;;5007906;28;20037;-71
2023/09/08 10:58:35;;;;;;;7.38;2.83;;;22.30;99.90;;;;;;5008679;27;20115;-71
2023/09/08 11:01:02;;;;;;;4.45;2.60;;;22.40;99.90;;;;;;5006148;27;20049;-71
2023/09/08 11:03:47;;;;;;;5.60;2.67;;;22.40;99.90;;;;;;5002883;28;20105;-70
2023/09/08 11:06:17;;;;;;;5.50;2.72;;;22.40;99.90;;;;;;5006557;28;20053;-70
2023/09/08 11:08:44;;;;;;;5.05;2.65;;;22.40;99.90;;;;;;5009315;28;20132;-70
2023/09/08 11:11:15;;;;;;;4.85;2.83;;;22.50;99.90;;;;;;5010819;28;20074;-70
2023/09/08 11:13:40;;;;;;;4.93;2.80;;;22.50;99.90;;;;;;4992351;28;20750;-70
2023/09/08 11:16:07;;;;;;;5.00;2.45;;;22.60;99.90;;;;;;5003466;27;20041;-70
2023/09/08 11:18:34;;;;;;;5.35;2.92;;;22.60;99.90;;;;;;5009941;28;20049;-70
2023/09/08 11:21:04;;;;;;;4.43;2.80;;;22.60;99.90;;;;;;5008233;28;20085;-71
2023/09/08 11:23:31;;;;;;;6.53;2.60;;;22.70;99.90;;;;;;5002940;28;20034;-70
2023/09/08 11:25:56;;;;;;;5.30;2.78;;;22.70;99.90;;;;;;5100985;27;20545;-70
2023/09/08 11:28:22;;;;;;;4.28;2.30;;;22.80;99.90;;;;;;5009052;28;20043;-70
2023/09/08 11:30:49;;;;;;;5.63;2.83;;;22.80;99.90;;;;;;5009096;27;20321;-71
2023/09/08 11:33:16;;;;;;;3.70;2.22;;;22.80;99.90;;;;;;5005382;28;20026;-71
2023/09/08 11:35:43;;;;;;;4.18;2.55;;;22.90;99.90;;;;;;5000926;28;20052;-70
2023/09/08 11:38:10;;;;;;;4.22;2.55;;;22.90;99.90;;;;;;5007210;28;20136;-69
2023/09/08 11:40:36;;;;;;;3.58;2.50;;;23.00;99.90;;;;;;5006311;28;20038;-71
2023/09/08 11:43:03;;;;;;;4.20;2.50;;;23.00;99.90;;;;;;5011911;27;20102;-70
2023/09/08 11:45:30;;;;;;;4.82;2.95;;;23.10;99.90;;;;;;5006903;27;20055;-71
2023/09/08 11:47:56;;;;;;;4.32;2.72;;;23.10;99.90;;;;;;4999937;27;20050;-71
2023/09/08 11:50:23;;;;;;;3.95;2.50;;;23.10;99.90;;;;;;5085746;27;20033;-71
2023/09/08 11:52:50;;;;;;;3.75;2.22;;;23.10;99.90;;;;;;5004002;28;20443;-71
2023/09/08 11:55:17;;;;;;;5.28;2.03;;;23.20;99.90;;;;;;5006716;28;20545;-71
2023/09/08 11:57:47;;;;;;;6.88;2.70;;;23.20;99.90;;;;;;5007364;28;20519;-71
2023/09/08 12:00:17;;;;;;;4.00;2.20;;;23.30;99.90;;;;;;5006251;28;20054;-71
2023/09/08 12:02:43;;;;;;;4.15;2.40;;;23.30;99.90;;;;;;5002846;28;20053;-71
2023/09/08 12:05:28;;;;;;;4.20;2.05;;;23.30;99.90;;;;;;5004184;28;20057;-71
2023/09/08 12:07:56;;;;;;;4.40;2.47;;;23.30;99.90;;;;;;5012638;28;20048;-71
2023/09/08 12:10:22;;;;;;;4.78;2.65;;;23.30;99.90;;;;;;5008672;28;20129;-71
2023/09/08 12:12:49;;;;;;;4.30;2.60;;;23.40;99.90;;;;;;5006818;28;20042;-70
2023/09/08 12:15:35;;;;;;;4.60;2.40;;;23.40;99.90;;;;;;5004970;28;20163;-70
2023/09/08 12:18:03;;;;;;;4.70;2.53;;;23.40;99.90;;;;;;5010660;28;20076;-71
2023/09/08 12:20:29;;;;;;;5.65;2.53;;;23.50;99.90;;;;;;5000976;28;20061;-70
2023/09/08 12:22:58;;;;;;;4.90;2.70;;;23.50;99.90;;;;;;5007043;28;20046;-71
2023/09/08 12:25:24;;;;;;;4.53;2.67;;;23.50;99.90;;;;;;5004053;28;20094;-70
2023/09/08 12:27:51;;;;;;;7.85;2.67;;;23.50;99.90;;;;;;5006629;28;20767;-70
2023/09/08 12:30:32;;;;;;;3.90;2.38;;;23.60;99.90;;;;;;5010405;28;20041;-71
2023/09/08 12:32:59;;;;;;;3.85;2.03;;;23.60;99.90;;;;;;5005236;28;20047;-70
2023/09/08 12:35:25;;;;;;;8.20;2.33;;;23.50;99.90;;;;;;5001848;28;20407;-70
2023/09/08 12:38:03;;;;;;;4.55;2.17;;;23.60;99.90;;;;;;5020938;27;20045;-70
2023/09/08 12:40:29;;;;;;;4.38;2.55;;;23.60;99.90;;;;;;5003834;28;20427;-70
2023/09/08 12:42:56;;;;;;;4.07;2.25;;;23.60;99.90;;;;;;5007943;28;20044;-70
2023/09/08 12:45:25;;;;;;;5.18;2.47;;;23.70;99.90;;;;;;5005516;28;20543;-70